createdAt,value
2022-08-20T00:02:15.225Z,13.40
2022-08-20T00:04:44.163Z,15.40
2022-08-20T00:07:13.857Z,14.30
2022-08-20T00:09:43.229Z,14.30
2022-08-20T00:12:16.102Z,13.40
2022-08-20T00:14:44.260Z,20.20
2022-08-20T00:17:12.315Z,17.20
2022-08-20T00:19:40.369Z,17.00
2022-08-20T00:22:08.504Z,13.00
2022-08-20T00:24:36.573Z,14.60
2022-08-20T00:27:04.605Z,13.00
2022-08-20T00:29:32.781Z,13.10
2022-08-20T00:32:00.845Z,15.40
2022-08-20T00:34:29.300Z,18.60
2022-08-20T00:36:57.399Z,13.20
2022-08-20T00:39:25.568Z,19.00
2022-08-20T00:41:53.619Z,12.50
2022-08-20T00:44:23.125Z,15.10
2022-08-20T00:46:52.734Z,18.60
2022-08-20T00:49:31.099Z,18.90
2022-08-20T00:52:17.808Z,14.80
2022-08-20T00:54:48.705Z,10.40
2022-08-20T00:57:53.305Z,15.70
2022-08-20T01:00:27.054Z,16.60
2022-08-20T01:02:55.900Z,15.80
2022-08-20T01:05:27.869Z,14.40
2022-08-20T01:07:58.768Z,13.20
2022-08-20T01:10:32.360Z,16.40
2022-08-20T01:13:04.255Z,14.00
2022-08-20T01:15:32.380Z,15.20
2022-08-20T01:18:02.420Z,16.70
2022-08-20T01:20:34.528Z,23.90
2022-08-20T01:23:27.139Z,22.00
2022-08-20T01:26:09.489Z,29.70
2022-08-20T01:28:40.453Z,23.10
2022-08-20T01:31:11.811Z,19.40
2022-08-20T01:33:40.761Z,22.90
2022-08-20T01:36:11.068Z,20.40
2022-08-20T01:38:54.168Z,17.90
2022-08-20T01:41:59.792Z,17.90
2022-08-20T01:44:28.155Z,13.80
2022-08-20T01:47:10.183Z,18.30
2022-08-20T01:49:44.165Z,16.40
2022-08-20T01:52:19.143Z,22.70
2022-08-20T01:54:47.280Z,20.00
2022-08-20T01:57:20.584Z,18.30
2022-08-20T01:59:50.537Z,18.00
2022-08-20T02:02:19.122Z,15.40
2022-08-20T02:04:47.402Z,18.70
2022-08-20T02:07:19.956Z,26.60
2022-08-20T02:12:17.794Z,20.80
2022-08-20T02:14:48.942Z,17.70
2022-08-20T02:17:19.145Z,18.20
2022-08-20T02:19:53.172Z,20.60
2022-08-20T02:22:27.264Z,15.20
2022-08-20T02:24:55.615Z,16.10
2022-08-20T02:27:24.477Z,13.40
2022-08-20T02:29:53.316Z,16.40
2022-08-20T02:32:24.984Z,14.70
2022-08-20T02:35:04.765Z,18.30
2022-08-20T02:37:32.817Z,20.90
2022-08-20T02:40:01.611Z,19.10
2022-08-20T02:42:29.631Z,21.80
2022-08-20T02:44:58.793Z,21.00
2022-08-20T02:47:28.016Z,17.30
2022-08-20T02:49:56.378Z,20.60
2022-08-20T02:52:24.353Z,20.20
2022-08-20T02:54:52.539Z,30.30
2022-08-20T02:57:20.685Z,21.00
2022-08-20T02:59:50.025Z,15.10
2022-08-20T03:02:19.035Z,16.30
2022-08-20T03:04:47.088Z,23.50
2022-08-20T03:07:15.198Z,20.90
2022-08-20T03:09:43.273Z,15.00
2022-08-20T03:12:11.510Z,18.40
2022-08-20T03:14:39.470Z,17.30
2022-08-20T03:17:07.621Z,19.40
2022-08-20T03:19:35.632Z,17.30
2022-08-20T03:22:03.905Z,35.00
2022-08-20T03:24:31.966Z,19.20
2022-08-20T03:27:00.015Z,21.30
2022-08-20T03:29:28.101Z,15.00
2022-08-20T03:31:56.113Z,19.60
2022-08-20T03:34:24.036Z,19.60
2022-08-20T03:36:52.162Z,21.70
2022-08-20T03:39:21.130Z,21.90
2022-08-20T03:41:49.109Z,24.30
2022-08-20T03:44:17.176Z,27.80
2022-08-20T03:46:45.153Z,27.80
2022-08-20T03:49:13.229Z,22.70
2022-08-20T03:51:56.473Z,19.80
2022-08-20T03:54:31.564Z,28.00
2022-08-20T03:57:01.401Z,29.80
2022-08-20T03:59:33.286Z,16.70
2022-08-20T04:02:01.517Z,28.30
2022-08-20T04:04:29.525Z,22.10
2022-08-20T04:06:57.535Z,34.60
2022-08-20T04:09:25.622Z,30.50
2022-08-20T04:12:00.248Z,21.30
2022-08-20T04:14:28.274Z,27.10
2022-08-20T04:16:57.769Z,26.90
2022-08-20T04:19:28.333Z,25.90
2022-08-20T04:21:59.549Z,24.80
2022-08-20T04:24:32.061Z,19.70
2022-08-20T04:27:03.063Z,15.80
2022-08-20T04:29:34.979Z,19.10
2022-08-20T04:32:06.730Z,18.50
2022-08-20T04:34:35.862Z,16.40
2022-08-20T04:37:04.762Z,18.10
2022-08-20T04:39:33.488Z,23.20
2022-08-20T04:42:01.592Z,23.10
2022-08-20T04:44:29.721Z,21.80
2022-08-20T04:46:58.128Z,17.90
2022-08-20T04:49:26.607Z,23.00
2022-08-20T04:51:54.902Z,21.00
2022-08-20T04:54:23.042Z,17.70
2022-08-20T04:56:51.524Z,39.70
2022-08-20T04:59:19.809Z,17.40
2022-08-20T05:01:47.774Z,14.60
2022-08-20T05:04:15.691Z,16.80
2022-08-20T05:06:43.891Z,17.90
2022-08-20T05:09:12.260Z,17.40
2022-08-20T05:11:40.612Z,12.90
2022-08-20T05:14:09.881Z,23.70
2022-08-20T05:16:39.748Z,18.10
2022-08-20T05:19:11.383Z,24.70
2022-08-20T05:21:40.485Z,17.40
2022-08-20T05:24:10.526Z,18.90
2022-08-20T05:26:38.747Z,22.00
2022-08-20T05:29:07.617Z,25.00
2022-08-20T05:31:36.377Z,32.90
2022-08-20T05:34:11.587Z,26.10
2022-08-20T05:36:44.385Z,21.00
2022-08-20T05:39:13.548Z,25.60
2022-08-20T05:41:42.241Z,30.90
2022-08-20T05:44:13.692Z,56.70
2022-08-20T05:46:44.982Z,44.80
2022-08-20T05:49:17.420Z,53.70
2022-08-20T05:51:46.106Z,35.60
2022-08-20T05:54:14.730Z,53.20
2022-08-20T05:56:43.384Z,51.00
2022-08-20T05:59:14.101Z,48.10
2022-08-20T06:01:43.254Z,25.70
2022-08-20T06:04:28.567Z,33.40
2022-08-20T06:07:05.928Z,28.00
2022-08-20T06:09:35.206Z,20.40
2022-08-20T06:12:06.724Z,15.20
2022-08-20T06:14:35.438Z,25.80
2022-08-20T06:17:09.499Z,28.60
2022-08-20T06:19:40.080Z,15.30
2022-08-20T06:22:18.968Z,23.80
2022-08-20T06:24:54.409Z,18.60
2022-08-20T06:27:22.680Z,28.10
2022-08-20T06:29:51.461Z,16.40
2022-08-20T06:32:32.211Z,22.50
2022-08-20T06:35:07.454Z,28.60
2022-08-20T06:37:37.608Z,38.30
2022-08-20T06:40:16.667Z,14.90
2022-08-20T06:42:48.522Z,15.40
2022-08-20T06:45:24.591Z,12.60
2022-08-20T06:47:58.768Z,13.20
2022-08-20T06:50:33.566Z,17.20
2022-08-20T06:53:01.577Z,19.70
2022-08-20T06:55:30.744Z,12.60
2022-08-20T06:58:30.509Z,16.20
2022-08-20T07:01:04.514Z,13.30
2022-08-20T07:03:39.471Z,12.00
2022-08-20T07:06:11.305Z,14.10
2022-08-20T07:08:39.511Z,14.70
2022-08-20T07:11:09.470Z,16.00
2022-08-20T07:13:38.435Z,12.80
2022-08-20T07:16:06.684Z,16.60
2022-08-20T07:18:35.799Z,11.60
2022-08-20T07:21:06.134Z,14.10
2022-08-20T07:23:38.015Z,12.60
2022-08-20T07:26:08.748Z,13.90
2022-08-20T07:28:37.185Z,14.80
2022-08-20T07:31:25.518Z,22.00
2022-08-20T07:33:56.537Z,21.60
2022-08-20T07:36:27.529Z,8.40
2022-08-20T07:38:56.213Z,24.40
2022-08-20T07:41:25.065Z,22.90
2022-08-20T07:43:54.590Z,18.70
2022-08-20T07:46:22.826Z,43.20
2022-08-20T07:48:51.785Z,13.00
2022-08-20T07:51:22.448Z,9.90
2022-08-20T07:53:52.051Z,22.10
2022-08-20T07:56:24.451Z,41.30
2022-08-20T07:58:55.708Z,20.70
2022-08-20T08:01:28.637Z,15.20
2022-08-20T08:03:57.866Z,29.20
2022-08-20T08:06:30.816Z,12.10
2022-08-20T08:09:04.636Z,12.70
2022-08-20T08:11:35.479Z,36.60
2022-08-20T08:14:06.451Z,32.60
2022-08-20T08:16:35.951Z,22.10
2022-08-20T08:19:08.147Z,18.90
2022-08-20T08:21:36.148Z,34.80
2022-08-20T08:24:04.480Z,18.10
2022-08-20T08:26:32.598Z,15.10
2022-08-20T08:29:00.564Z,18.70
2022-08-20T08:31:28.970Z,19.60
2022-08-20T08:33:56.951Z,14.70
2022-08-20T08:36:27.246Z,13.10
2022-08-20T08:38:56.646Z,17.10
2022-08-20T08:41:50.197Z,11.90
2022-08-20T08:44:26.973Z,8.70
2022-08-20T08:47:07.934Z,16.50
2022-08-20T08:49:37.415Z,26.20
2022-08-20T08:52:16.822Z,18.00
2022-08-20T08:54:49.080Z,11.00
2022-08-20T08:57:18.270Z,11.30
2022-08-20T09:00:03.893Z,12.00
2022-08-20T09:02:35.556Z,12.40
2022-08-20T09:05:13.732Z,13.10
2022-08-20T09:07:45.858Z,8.40
2022-08-20T09:10:14.532Z,11.30
2022-08-20T09:12:47.756Z,17.40
2022-08-20T09:15:16.802Z,10.80
2022-08-20T09:17:44.917Z,8.90
2022-08-20T09:20:13.084Z,9.50
2022-08-20T09:22:42.032Z,24.00
2022-08-20T09:25:10.766Z,10.60
2022-08-20T09:27:41.560Z,35.80
2022-08-20T09:30:12.867Z,21.20
2022-08-20T09:32:43.352Z,16.00
2022-08-20T09:35:11.944Z,11.60
2022-08-20T09:37:40.287Z,12.10
2022-08-20T09:40:10.176Z,9.70
2022-08-20T09:42:41.524Z,18.30
2022-08-20T09:45:12.287Z,11.20
2022-08-20T09:47:55.188Z,12.50
2022-08-20T09:50:31.738Z,12.20
2022-08-20T09:53:02.620Z,12.20
2022-08-20T09:55:38.695Z,11.40
2022-08-20T09:58:32.845Z,10.70
2022-08-20T10:01:07.317Z,11.30
2022-08-20T10:03:44.422Z,15.90
2022-08-20T10:06:14.905Z,19.30
2022-08-20T10:08:43.984Z,17.60
2022-08-20T10:11:12.804Z,13.50
2022-08-20T10:13:41.402Z,9.60
2022-08-20T10:16:10.409Z,13.40
2022-08-20T10:18:38.762Z,15.00
2022-08-20T10:21:14.259Z,10.50
2022-08-20T10:23:42.927Z,13.20
2022-08-20T10:26:12.935Z,9.30
2022-08-20T10:28:41.905Z,8.90
2022-08-20T10:31:12.835Z,9.80
2022-08-20T10:33:43.096Z,11.60
2022-08-20T10:36:15.717Z,11.00
2022-08-20T10:38:44.709Z,10.40
2022-08-20T10:41:13.469Z,7.70
2022-08-20T10:43:41.650Z,9.90
2022-08-20T10:46:10.142Z,11.70
2022-08-20T10:48:39.439Z,9.90
2022-08-20T10:51:07.670Z,9.20
2022-08-20T10:53:36.339Z,12.80
2022-08-20T10:56:05.544Z,8.40
2022-08-20T10:58:39.457Z,11.30
2022-08-20T11:01:09.010Z,9.40
2022-08-20T11:03:37.276Z,9.70
2022-08-20T11:06:05.601Z,10.90
2022-08-20T11:08:36.398Z,16.10
2022-08-20T11:11:07.304Z,8.10
2022-08-20T11:13:35.651Z,9.20
2022-08-20T11:16:05.312Z,9.70
2022-08-20T11:18:36.061Z,7.40
2022-08-20T11:21:04.352Z,13.20
2022-08-20T11:23:32.390Z,17.20
2022-08-20T11:26:01.360Z,8.00
2022-08-20T11:28:32.237Z,14.10
2022-08-20T11:31:02.232Z,8.30
2022-08-20T11:33:30.554Z,13.50
2022-08-20T11:35:58.536Z,7.10
2022-08-20T11:38:27.252Z,16.00
2022-08-20T11:40:55.354Z,10.40
2022-08-20T11:43:23.464Z,7.00
2022-08-20T11:45:55.499Z,7.50
2022-08-20T11:48:24.218Z,11.40
2022-08-20T11:50:52.839Z,11.60
2022-08-20T11:53:22.232Z,9.90
2022-08-20T11:55:50.703Z,13.20
2022-08-20T11:58:18.973Z,12.10
2022-08-20T12:00:47.115Z,9.10
2022-08-20T12:03:15.949Z,9.60
2022-08-20T12:05:46.116Z,10.10
2022-08-20T12:08:27.078Z,12.70
2022-08-20T12:10:59.324Z,11.70
2022-08-20T12:13:47.332Z,10.70
2022-08-20T12:16:19.078Z,9.80
2022-08-20T12:18:48.464Z,9.10
2022-08-20T12:21:17.310Z,10.80
2022-08-20T12:23:46.238Z,13.70
2022-08-20T12:26:16.794Z,8.40
2022-08-20T12:28:44.905Z,10.40
2022-08-20T12:31:13.115Z,12.70
2022-08-20T12:33:41.502Z,10.30
2022-08-20T12:36:09.628Z,6.80
2022-08-20T12:38:37.741Z,10.30
2022-08-20T12:41:06.793Z,12.70
2022-08-20T12:43:34.868Z,12.10
2022-08-20T12:46:03.070Z,12.50
2022-08-20T12:48:31.058Z,8.00
2022-08-20T12:50:59.123Z,9.40
2022-08-20T12:53:27.220Z,7.60
2022-08-20T12:55:55.358Z,9.40
2022-08-20T12:58:23.653Z,8.50
2022-08-20T13:00:51.985Z,8.90
2022-08-20T13:03:21.178Z,9.20
2022-08-20T13:05:50.836Z,8.00
2022-08-20T13:08:19.703Z,12.10
2022-08-20T13:10:48.531Z,11.80
2022-08-20T13:13:20.494Z,10.00
2022-08-20T13:15:51.211Z,11.30
2022-08-20T13:18:20.348Z,13.30
2022-08-20T13:20:49.982Z,10.60
2022-08-20T13:23:18.328Z,9.70
2022-08-20T13:25:46.398Z,11.60
2022-08-20T13:28:14.775Z,9.80
2022-08-20T13:59:48.161Z,15.20
2022-08-20T14:02:50.757Z,17.30
2022-08-20T14:25:27.726Z,23.20
2022-08-20T14:31:20.407Z,11.30
2022-08-20T14:34:21.300Z,11.30
2022-08-20T14:37:41.412Z,11.80
2022-08-20T14:44:19.092Z,9.50
2022-08-20T14:48:01.310Z,19.90
2022-08-20T14:51:16.329Z,14.50
2022-08-20T15:05:40.079Z,11.80
2022-08-20T15:08:46.776Z,10.40
2022-08-20T15:15:41.893Z,11.30
2022-08-20T15:22:00.458Z,9.10
2022-08-20T15:29:32.827Z,8.90
2022-08-20T15:52:04.749Z,12.50
2022-08-20T15:55:24.499Z,13.70
2022-08-20T16:29:31.597Z,9.70
2022-08-20T17:11:00.589Z,12.90
2022-08-20T17:11:52.412Z,14.10
2022-08-20T17:22:10.812Z,9.10
2022-08-20T17:43:51.709Z,17.20
2022-08-20T17:47:49.075Z,13.70
2022-08-20T17:51:22.760Z,10.30
2022-08-20T18:58:13.340Z,11.50
2022-08-20T19:00:56.486Z,16.50
2022-08-20T19:03:32.952Z,11.20
2022-08-20T19:06:15.196Z,14.30
2022-08-20T19:12:22.448Z,12.90
2022-08-20T19:15:25.719Z,15.50
2022-08-20T19:18:04.475Z,14.80
2022-08-20T19:20:35.627Z,15.70
2022-08-20T19:23:31.290Z,13.30
2022-08-20T19:26:25.830Z,19.10
2022-08-20T19:29:42.094Z,12.50
2022-08-20T19:32:18.424Z,15.80
2022-08-20T19:34:59.542Z,15.40
2022-08-20T19:37:38.620Z,12.30
2022-08-20T19:40:30.262Z,11.90
2022-08-20T19:43:00.314Z,17.60
2022-08-20T19:45:43.104Z,18.40
2022-08-20T19:48:27.218Z,15.20
2022-08-20T19:50:57.927Z,12.10
2022-08-20T19:53:31.106Z,12.00
2022-08-20T19:56:23.722Z,11.50
2022-08-20T19:59:04.196Z,14.60
2022-08-20T20:01:31.886Z,12.40
2022-08-20T20:04:02.718Z,13.40
2022-08-20T20:06:35.643Z,12.60
2022-08-20T20:09:13.198Z,10.70
2022-08-20T20:11:46.222Z,16.30
2022-08-20T20:14:17.965Z,16.30
2022-08-20T20:16:48.360Z,13.20
2022-08-20T20:19:28.139Z,14.10
2022-08-20T20:22:08.499Z,15.50
2022-08-20T20:25:26.074Z,13.40
2022-08-20T20:27:56.373Z,13.30
2022-08-20T20:30:33.688Z,15.90
2022-08-20T20:33:13.301Z,10.00
2022-08-20T20:35:45.552Z,14.10
2022-08-20T20:40:52.739Z,11.40
2022-08-20T20:43:30.241Z,11.80
2022-08-20T20:46:02.565Z,15.80
2022-08-20T20:51:31.267Z,11.20
2022-08-20T20:54:09.704Z,8.90
2022-08-20T20:57:00.732Z,14.50
2022-08-20T20:59:28.455Z,17.10
2022-08-20T21:01:55.182Z,11.30
2022-08-20T21:04:23.663Z,12.90
2022-08-20T21:06:53.412Z,20.10
2022-08-20T21:09:21.608Z,14.60
2022-08-20T21:11:49.182Z,12.30
2022-08-20T21:14:16.764Z,17.60
2022-08-20T21:16:44.241Z,13.50
2022-08-20T21:19:12.304Z,10.70
2022-08-20T21:21:40.019Z,15.40
2022-08-20T21:24:07.862Z,13.10
2022-08-20T21:26:35.487Z,10.00
2022-08-20T21:29:03.719Z,14.90
2022-08-20T21:31:34.357Z,15.30
2022-08-20T21:34:01.466Z,10.60
2022-08-20T21:36:28.600Z,11.00
2022-08-20T21:38:55.683Z,12.50
2022-08-20T21:41:29.481Z,11.20
2022-08-20T21:44:00.477Z,13.10
2022-08-20T21:46:28.085Z,16.10
2022-08-20T21:48:55.033Z,11.50
2022-08-20T21:51:21.718Z,11.80
2022-08-20T21:53:48.376Z,15.20
2022-08-20T21:56:15.034Z,11.50
2022-08-20T21:58:43.090Z,9.60
2022-08-20T22:01:11.904Z,13.30
2022-08-20T22:03:40.972Z,19.00
2022-08-20T22:06:11.101Z,13.10
2022-08-20T22:08:38.309Z,13.80
2022-08-20T22:11:08.165Z,14.10
2022-08-20T22:13:35.275Z,11.20
2022-08-20T22:16:06.811Z,10.80
2022-08-20T22:18:35.233Z,11.70
2022-08-20T22:21:02.929Z,17.60
2022-08-20T22:23:29.575Z,11.20
2022-08-20T22:25:56.707Z,14.40
2022-08-20T22:28:23.672Z,11.20
2022-08-20T22:30:50.446Z,13.10
2022-08-20T22:33:21.810Z,8.60
2022-08-20T22:35:53.402Z,9.60
2022-08-20T22:38:21.058Z,13.00
2022-08-20T22:40:48.373Z,11.60
2022-08-20T22:43:15.758Z,14.40
2022-08-20T22:45:45.032Z,16.10
2022-08-20T22:48:15.740Z,11.00
2022-08-20T22:50:42.508Z,11.80
2022-08-20T22:53:10.688Z,9.50
2022-08-20T22:55:37.994Z,9.20
2022-08-20T22:58:05.829Z,8.90
2022-08-20T23:00:33.687Z,14.80
2022-08-20T23:03:01.535Z,13.80
2022-08-20T23:05:32.384Z,9.50
2022-08-20T23:08:00.683Z,10.20
2022-08-20T23:10:29.173Z,12.10
2022-08-20T23:12:56.895Z,8.50
2022-08-20T23:15:25.441Z,8.80
2022-08-20T23:17:56.457Z,11.50
2022-08-20T23:20:23.270Z,10.90
2022-08-20T23:22:49.943Z,9.20
2022-08-20T23:25:21.536Z,9.40
2022-08-20T23:27:51.217Z,10.80
2022-08-20T23:30:20.233Z,10.20
2022-08-20T23:32:47.095Z,12.10
2022-08-20T23:35:15.094Z,12.30
2022-08-20T23:37:48.174Z,14.20
2022-08-20T23:40:28.313Z,9.70
2022-08-20T23:42:56.124Z,9.80
2022-08-20T23:45:23.208Z,13.50
2022-08-20T23:47:49.959Z,11.40
2022-08-20T23:50:21.618Z,12.40
2022-08-20T23:52:52.483Z,11.20
2022-08-20T23:55:20.063Z,17.10
2022-08-20T23:57:46.720Z,13.40
